sensor_id;sensor_type;location;lat;lon;timestamp;pressure;altitude;pressure_sealevel;temperature;humidity
21547;BME280;41275;51.912;4.388;2022-10-30T00:03:24;101620.94;;;23.58;48.96
21547;BME280;41275;51.912;4.388;2022-10-30T00:08:46;101614.50;;;23.53;49.08
21547;BME280;41275;51.912;4.388;2022-10-30T00:14:07;101609.50;;;23.47;49.42
21547;BME280;41275;51.912;4.388;2022-10-30T00:19:28;101617.38;;;23.43;49.56
21547;BME280;41275;51.912;4.388;2022-10-30T00:24:50;101614.16;;;23.41;49.52
21547;BME280;41275;51.912;4.388;2022-10-30T00:30:11;101620.16;;;23.38;49.61
21547;BME280;41275;51.912;4.388;2022-10-30T00:35:32;101612.94;;;23.34;49.95
21547;BME280;41275;51.912;4.388;2022-10-30T00:40:53;101614.34;;;23.31;50.06
21547;BME280;41275;51.912;4.388;2022-10-30T00:46:32;101609.72;;;23.32;50.29
21547;BME280;41275;51.912;4.388;2022-10-30T00:51:54;101611.69;;;23.26;50.21
21547;BME280;41275;51.912;4.388;2022-10-30T00:57:17;101618.53;;;23.18;50.86
21547;BME280;41275;51.912;4.388;2022-10-30T01:02:40;101625.63;;;23.14;50.67
21547;BME280;41275;51.912;4.388;2022-10-30T01:08:03;101631.03;;;23.14;50.57
21547;BME280;41275;51.912;4.388;2022-10-30T01:13:25;101622.13;;;23.14;50.46
21547;BME280;41275;51.912;4.388;2022-10-30T01:30:36;101630.75;;;23.16;50.39
21547;BME280;41275;51.912;4.388;2022-10-30T01:41:30;101632.69;;;23.10;50.69
21547;BME280;41275;51.912;4.388;2022-10-30T01:46:59;101635.19;;;23.07;50.80
21547;BME280;41275;51.912;4.388;2022-10-30T01:52:54;101634.44;;;23.01;50.96
21547;BME280;41275;51.912;4.388;2022-10-30T02:04:18;101635.59;;;22.95;51.08
21547;BME280;41275;51.912;4.388;2022-10-30T02:09:39;101625.94;;;22.89;51.00
21547;BME280;41275;51.912;4.388;2022-10-30T02:15:01;101620.03;;;22.87;51.21
21547;BME280;41275;51.912;4.388;2022-10-30T02:20:23;101633.03;;;22.85;51.15
21547;BME280;41275;51.912;4.388;2022-10-30T02:25:44;101637.09;;;22.82;51.28
21547;BME280;41275;51.912;4.388;2022-10-30T02:31:06;101633.13;;;22.74;51.58
21547;BME280;41275;51.912;4.388;2022-10-30T02:36:27;101649.88;;;22.71;51.50
21547;BME280;41275;51.912;4.388;2022-10-30T02:41:48;101655.34;;;22.66;51.58
21547;BME280;41275;51.912;4.388;2022-10-30T02:47:10;101647.81;;;22.63;51.64
21547;BME280;41275;51.912;4.388;2022-10-30T02:52:31;101641.13;;;22.61;51.52
21547;BME280;41275;51.912;4.388;2022-10-30T02:57:53;101641.16;;;22.55;51.90
21547;BME280;41275;51.912;4.388;2022-10-30T03:03:14;101640.13;;;22.51;51.65
21547;BME280;41275;51.912;4.388;2022-10-30T03:08:36;101621.38;;;22.41;52.27
21547;BME280;41275;51.912;4.388;2022-10-30T03:13:57;101621.44;;;22.36;51.97
21547;BME280;41275;51.912;4.388;2022-10-30T03:19:18;101645.50;;;22.27;52.14
21547;BME280;41275;51.912;4.388;2022-10-30T03:24:39;101630.81;;;22.15;52.43
21547;BME280;41275;51.912;4.388;2022-10-30T03:30:01;101636.00;;;22.06;52.48
21547;BME280;41275;51.912;4.388;2022-10-30T03:35:22;101623.47;;;21.91;52.72
21547;BME280;41275;51.912;4.388;2022-10-30T03:40:43;101638.63;;;21.82;52.72
21547;BME280;41275;51.912;4.388;2022-10-30T03:46:04;101637.41;;;21.69;52.78
21547;BME280;41275;51.912;4.388;2022-10-30T03:51:26;101653.88;;;21.63;53.17
21547;BME280;41275;51.912;4.388;2022-10-30T03:56:47;101644.50;;;21.55;53.48
21547;BME280;41275;51.912;4.388;2022-10-30T04:02:08;101645.63;;;21.44;53.68
21547;BME280;41275;51.912;4.388;2022-10-30T04:07:29;101638.69;;;21.32;53.63
21547;BME280;41275;51.912;4.388;2022-10-30T04:12:51;101642.50;;;21.26;54.04
21547;BME280;41275;51.912;4.388;2022-10-30T04:18:14;101638.50;;;21.14;54.22
21547;BME280;41275;51.912;4.388;2022-10-30T04:23:36;101636.09;;;21.12;54.14
21547;BME280;41275;51.912;4.388;2022-10-30T04:28:57;101631.56;;;21.02;54.09
21547;BME280;41275;51.912;4.388;2022-10-30T04:34:18;101623.00;;;20.95;54.22
21547;BME280;41275;51.912;4.388;2022-10-30T04:39:40;101611.19;;;20.91;54.48
21547;BME280;41275;51.912;4.388;2022-10-30T04:45:05;101622.50;;;20.88;54.78
21547;BME280;41275;51.912;4.388;2022-10-30T04:50:26;101608.25;;;20.82;54.97
21547;BME280;41275;51.912;4.388;2022-10-30T04:55:52;101629.50;;;20.84;55.21
21547;BME280;41275;51.912;4.388;2022-10-30T05:01:14;101624.69;;;20.81;54.94
21547;BME280;41275;51.912;4.388;2022-10-30T05:06:35;101630.88;;;20.76;55.02
21547;BME280;41275;51.912;4.388;2022-10-30T05:11:57;101619.31;;;20.76;55.24
21547;BME280;41275;51.912;4.388;2022-10-30T05:17:18;101620.38;;;20.75;55.13
21547;BME280;41275;51.912;4.388;2022-10-30T05:22:39;101624.44;;;20.72;55.14
21547;BME280;41275;51.912;4.388;2022-10-30T05:28:03;101623.66;;;20.72;55.14
21547;BME280;41275;51.912;4.388;2022-10-30T05:33:24;101618.81;;;20.69;55.13
21547;BME280;41275;51.912;4.388;2022-10-30T05:38:45;101634.97;;;20.64;55.12
21547;BME280;41275;51.912;4.388;2022-10-30T05:44:06;101640.34;;;20.58;55.16
21547;BME280;41275;51.912;4.388;2022-10-30T05:49:29;101649.78;;;20.56;55.25
21547;BME280;41275;51.912;4.388;2022-10-30T05:54:51;101644.94;;;20.53;55.22
21547;BME280;41275;51.912;4.388;2022-10-30T06:00:12;101640.63;;;20.47;55.34
21547;BME280;41275;51.912;4.388;2022-10-30T06:05:35;101636.59;;;20.39;55.39
21547;BME280;41275;51.912;4.388;2022-10-30T06:10:56;101639.84;;;20.36;55.65
21547;BME280;41275;51.912;4.388;2022-10-30T06:16:17;101651.13;;;20.33;55.64
21547;BME280;41275;51.912;4.388;2022-10-30T06:21:39;101655.16;;;20.30;55.86
21547;BME280;41275;51.912;4.388;2022-10-30T06:27:00;101642.28;;;20.22;56.25
21547;BME280;41275;51.912;4.388;2022-10-30T06:32:21;101645.22;;;20.36;56.11
21547;BME280;41275;51.912;4.388;2022-10-30T06:37:46;101639.28;;;20.44;55.75
21547;BME280;41275;51.912;4.388;2022-10-30T06:43:08;101626.38;;;20.56;55.92
21547;BME280;41275;51.912;4.388;2022-10-30T06:48:29;101628.44;;;20.75;55.53
21547;BME280;41275;51.912;4.388;2022-10-30T06:53:50;101624.91;;;20.95;55.25
21547;BME280;41275;51.912;4.388;2022-10-30T06:59:31;101618.34;;;21.06;55.00
21547;BME280;41275;51.912;4.388;2022-10-30T07:04:52;101636.59;;;21.19;54.87
21547;BME280;41275;51.912;4.388;2022-10-30T07:10:14;101631.72;;;21.26;54.52
21547;BME280;41275;51.912;4.388;2022-10-30T07:15:35;101638.72;;;21.27;54.47
21547;BME280;41275;51.912;4.388;2022-10-30T07:20:56;101632.72;;;21.41;54.49
21547;BME280;41275;51.912;4.388;2022-10-30T07:26:17;101633.72;;;21.55;53.89
21547;BME280;41275;51.912;4.388;2022-10-30T07:31:39;101636.31;;;21.70;54.18
21547;BME280;41275;51.912;4.388;2022-10-30T07:37:00;101640.97;;;21.89;53.52
21547;BME280;41275;51.912;4.388;2022-10-30T07:42:21;101644.53;;;22.18;53.15
21547;BME280;41275;51.912;4.388;2022-10-30T07:47:42;101631.06;;;22.42;52.52
21547;BME280;41275;51.912;4.388;2022-10-30T07:53:04;101648.19;;;22.57;52.09
21547;BME280;41275;51.912;4.388;2022-10-30T07:58:25;101654.31;;;22.62;51.86
21547;BME280;41275;51.912;4.388;2022-10-30T08:03:46;101673.38;;;22.71;51.66
21547;BME280;41275;51.912;4.388;2022-10-30T08:09:08;101671.44;;;22.76;51.43
21547;BME280;41275;51.912;4.388;2022-10-30T08:14:29;101673.34;;;22.76;51.26
21547;BME280;41275;51.912;4.388;2022-10-30T08:19:50;101677.53;;;22.87;50.85
21547;BME280;41275;51.912;4.388;2022-10-30T08:25:11;101676.78;;;23.06;50.72
21547;BME280;41275;51.912;4.388;2022-10-30T08:30:34;101673.94;;;23.16;50.74
21547;BME280;41275;51.912;4.388;2022-10-30T08:35:59;101662.50;;;23.24;50.26
21547;BME280;41275;51.912;4.388;2022-10-30T08:41:21;101659.06;;;23.37;49.95
21547;BME280;41275;51.912;4.388;2022-10-30T08:46:42;101674.69;;;23.40;50.12
21547;BME280;41275;51.912;4.388;2022-10-30T08:52:07;101670.38;;;23.39;49.91
21547;BME280;41275;51.912;4.388;2022-10-30T08:57:34;101681.41;;;23.43;50.02
21547;BME280;41275;51.912;4.388;2022-10-30T09:02:56;101676.72;;;23.48;50.03
21547;BME280;41275;51.912;4.388;2022-10-30T09:08:17;101672.25;;;23.58;49.82
21547;BME280;41275;51.912;4.388;2022-10-30T09:13:38;101666.16;;;23.71;49.50
21547;BME280;41275;51.912;4.388;2022-10-30T09:18:59;101662.56;;;23.75;49.36
21547;BME280;41275;51.912;4.388;2022-10-30T09:24:20;101680.22;;;23.87;49.34
21547;BME280;41275;51.912;4.388;2022-10-30T09:29:42;101674.56;;;24.02;48.78
21547;BME280;41275;51.912;4.388;2022-10-30T09:35:03;101666.53;;;24.30;48.45
21547;BME280;41275;51.912;4.388;2022-10-30T09:46:30;101668.38;;;24.76;47.27
21547;BME280;41275;51.912;4.388;2022-10-30T10:09:16;101663.66;;;25.45;45.84
21547;BME280;41275;51.912;4.388;2022-10-30T10:14:42;101670.88;;;25.72;45.41
21547;BME280;41275;51.912;4.388;2022-10-30T10:20:13;101661.78;;;25.90;44.88
21547;BME280;41275;51.912;4.388;2022-10-30T10:25:37;101663.25;;;25.97;44.41
21547;BME280;41275;51.912;4.388;2022-10-30T10:31:22;101656.69;;;26.20;44.37
21547;BME280;41275;51.912;4.388;2022-10-30T10:37:12;101644.97;;;26.42;43.49
21547;BME280;41275;51.912;4.388;2022-10-30T10:43:03;101652.41;;;26.59;42.95
21547;BME280;41275;51.912;4.388;2022-10-30T10:48:38;101646.34;;;26.62;42.56
21547;BME280;41275;51.912;4.388;2022-10-30T10:54:17;101637.22;;;26.58;42.24
21547;BME280;41275;51.912;4.388;2022-10-30T10:59:44;101633.91;;;26.61;42.13
21547;BME280;41275;51.912;4.388;2022-10-30T11:05:24;101630.84;;;26.62;42.72
21547;BME280;41275;51.912;4.388;2022-10-30T11:10:59;101631.97;;;26.61;42.68
21547;BME280;41275;51.912;4.388;2022-10-30T11:22:16;101632.09;;;26.56;42.56
21547;BME280;41275;51.912;4.388;2022-10-30T11:27:40;101621.09;;;26.53;42.81
21547;BME280;41275;51.912;4.388;2022-10-30T11:33:20;101621.25;;;26.56;42.63
21547;BME280;41275;51.912;4.388;2022-10-30T11:38:42;101619.41;;;26.91;42.53
21547;BME280;41275;51.912;4.388;2022-10-30T11:44:04;101613.88;;;27.14;41.86
21547;BME280;41275;51.912;4.388;2022-10-30T11:49:40;101621.06;;;27.19;41.38
21547;BME280;41275;51.912;4.388;2022-10-30T11:55:39;101623.41;;;27.03;42.10
21547;BME280;41275;51.912;4.388;2022-10-30T12:01:22;101629.19;;;27.01;42.21
21547;BME280;41275;51.912;4.388;2022-10-30T12:06:44;101631.22;;;26.96;42.12
21547;BME280;41275;51.912;4.388;2022-10-30T12:12:22;101632.84;;;27.05;41.77
21547;BME280;41275;51.912;4.388;2022-10-30T12:18:05;101632.97;;;26.91;42.51
21547;BME280;41275;51.912;4.388;2022-10-30T12:23:28;101638.84;;;26.67;42.66
21547;BME280;41275;51.912;4.388;2022-10-30T12:28:56;101625.97;;;26.42;43.44
21547;BME280;41275;51.912;4.388;2022-10-30T12:34:42;101613.78;;;26.22;44.36
21547;BME280;41275;51.912;4.388;2022-10-30T12:40:23;101604.00;;;26.21;44.39
21547;BME280;41275;51.912;4.388;2022-10-30T12:45:48;101603.91;;;26.35;43.84
21547;BME280;41275;51.912;4.388;2022-10-30T12:51:25;101610.81;;;26.41;44.02
21547;BME280;41275;51.912;4.388;2022-10-30T12:56:51;101610.13;;;26.84;43.47
21547;BME280;41275;51.912;4.388;2022-10-30T13:02:26;101600.94;;;27.20;42.88
21547;BME280;41275;51.912;4.388;2022-10-30T13:13:42;101590.31;;;27.61;41.76
21547;BME280;41275;51.912;4.388;2022-10-30T13:19:10;101587.41;;;27.66;41.80
21547;BME280;41275;51.912;4.388;2022-10-30T13:24:56;101581.06;;;28.18;41.50
21547;BME280;41275;51.912;4.388;2022-10-30T13:30:21;101589.59;;;28.88;39.90
21547;BME280;41275;51.912;4.388;2022-10-30T13:35:55;101603.13;;;28.55;39.96
21547;BME280;41275;51.912;4.388;2022-10-30T13:47:23;101631.13;;;27.44;41.25
21547;BME280;41275;51.912;4.388;2022-10-30T13:52:52;101648.63;;;26.68;42.50
21547;BME280;41275;51.912;4.388;2022-10-30T13:58:27;101652.63;;;26.09;43.68
21547;BME280;41275;51.912;4.388;2022-10-30T14:04:03;101654.56;;;25.86;43.50
21547;BME280;41275;51.912;4.388;2022-10-30T14:09:57;101680.22;;;25.66;43.11
21547;BME280;41275;51.912;4.388;2022-10-30T14:15:44;101663.88;;;25.35;44.21
21547;BME280;41275;51.912;4.388;2022-10-30T14:21:49;101647.59;;;25.12;44.77
21547;BME280;41275;51.912;4.388;2022-10-30T14:27:09;101652.84;;;24.81;45.55
21547;BME280;41275;51.912;4.388;2022-10-30T14:32:37;101645.63;;;24.63;46.08
21547;BME280;41275;51.912;4.388;2022-10-30T14:43:49;101657.56;;;24.15;47.17
21547;BME280;41275;51.912;4.388;2022-10-30T14:49:32;101695.66;;;24.19;47.73
21547;BME280;41275;51.912;4.388;2022-10-30T15:00:45;101732.06;;;24.08;47.81
21547;BME280;41275;51.912;4.388;2022-10-30T15:06:21;101722.72;;;24.00;47.93
21547;BME280;41275;51.912;4.388;2022-10-30T15:12:09;101746.72;;;23.88;48.21
21547;BME280;41275;51.912;4.388;2022-10-30T15:17:41;101745.81;;;23.73;48.74
21547;BME280;41275;51.912;4.388;2022-10-30T15:23:07;101746.66;;;23.74;48.70
21547;BME280;41275;51.912;4.388;2022-10-30T15:28:32;101736.91;;;23.73;48.70
21547;BME280;41275;51.912;4.388;2022-10-30T15:33:55;101752.56;;;23.95;48.54
21547;BME280;41275;51.912;4.388;2022-10-30T15:39:17;101748.75;;;23.96;48.03
21547;BME280;41275;51.912;4.388;2022-10-30T15:44:43;101742.69;;;23.85;48.30
21547;BME280;41275;51.912;4.388;2022-10-30T15:50:05;101733.50;;;23.86;47.80
21547;BME280;41275;51.912;4.388;2022-10-30T15:55:30;101744.00;;;23.88;47.86
21547;BME280;41275;51.912;4.388;2022-10-30T16:00:58;101723.25;;;23.83;47.83
21547;BME280;41275;51.912;4.388;2022-10-30T16:06:23;101738.28;;;23.89;47.52
21547;BME280;41275;51.912;4.388;2022-10-30T16:11:46;101723.53;;;24.00;47.58
21547;BME280;41275;51.912;4.388;2022-10-30T16:17:08;101731.13;;;23.98;47.69
21547;BME280;41275;51.912;4.388;2022-10-30T16:22:35;101735.53;;;23.94;47.42
21547;BME280;41275;51.912;4.388;2022-10-30T16:27:58;101737.94;;;23.96;47.64
21547;BME280;41275;51.912;4.388;2022-10-30T16:33:23;101738.50;;;23.93;48.03
21547;BME280;41275;51.912;4.388;2022-10-30T16:38:47;101746.22;;;23.86;48.14
21547;BME280;41275;51.912;4.388;2022-10-30T16:44:13;101754.16;;;23.77;48.41
21547;BME280;41275;51.912;4.388;2022-10-30T16:49:35;101742.31;;;23.73;48.76
21547;BME280;41275;51.912;4.388;2022-10-30T16:55:00;101759.72;;;23.67;48.86
21547;BME280;41275;51.912;4.388;2022-10-30T17:00:27;101770.94;;;23.55;48.94
21547;BME280;41275;51.912;4.388;2022-10-30T17:12:05;101782.34;;;23.28;48.31
21547;BME280;41275;51.912;4.388;2022-10-30T17:17:33;101798.66;;;23.18;48.16
21547;BME280;41275;51.912;4.388;2022-10-30T17:23:10;101816.13;;;23.01;48.60
21547;BME280;41275;51.912;4.388;2022-10-30T17:28:34;101822.44;;;22.87;48.72
21547;BME280;41275;51.912;4.388;2022-10-30T17:39:33;101828.25;;;22.70;48.11
21547;BME280;41275;51.912;4.388;2022-10-30T17:44:55;101827.53;;;22.59;47.84
21547;BME280;41275;51.912;4.388;2022-10-30T17:50:16;101836.50;;;22.54;46.73
21547;BME280;41275;51.912;4.388;2022-10-30T17:55:37;101856.16;;;22.55;45.58
21547;BME280;41275;51.912;4.388;2022-10-30T18:00:59;101874.00;;;22.51;44.66
21547;BME280;41275;51.912;4.388;2022-10-30T18:06:26;101878.66;;;22.45;44.54
21547;BME280;41275;51.912;4.388;2022-10-30T18:11:47;101876.28;;;22.34;44.69
21547;BME280;41275;51.912;4.388;2022-10-30T18:17:09;101882.59;;;22.19;44.99
21547;BME280;41275;51.912;4.388;2022-10-30T18:22:31;101879.94;;;22.09;45.46
21547;BME280;41275;51.912;4.388;2022-10-30T18:27:52;101889.94;;;21.98;45.39
21547;BME280;41275;51.912;4.388;2022-10-30T18:33:13;101873.56;;;21.89;45.70
21547;BME280;41275;51.912;4.388;2022-10-30T18:38:55;101873.56;;;21.84;46.10
21547;BME280;41275;51.912;4.388;2022-10-30T18:44:19;101875.97;;;21.91;46.09
21547;BME280;41275;51.912;4.388;2022-10-30T18:49:40;101885.66;;;21.92;46.00
21547;BME280;41275;51.912;4.388;2022-10-30T18:55:12;101888.09;;;21.93;45.81
21547;BME280;41275;51.912;4.388;2022-10-30T19:00:45;101895.06;;;21.99;45.57
21547;BME280;41275;51.912;4.388;2022-10-30T19:06:11;101905.00;;;22.14;45.19
21547;BME280;41275;51.912;4.388;2022-10-30T19:11:36;101909.03;;;22.17;45.14
21547;BME280;41275;51.912;4.388;2022-10-30T19:17:00;101930.31;;;22.18;45.42
21547;BME280;41275;51.912;4.388;2022-10-30T19:22:21;101926.81;;;22.08;45.59
21547;BME280;41275;51.912;4.388;2022-10-30T19:27:47;101937.13;;;21.95;46.01
21547;BME280;41275;51.912;4.388;2022-10-30T19:33:09;101932.56;;;21.91;46.36
21547;BME280;41275;51.912;4.388;2022-10-30T19:38:30;101924.19;;;21.92;46.69
21547;BME280;41275;51.912;4.388;2022-10-30T19:43:52;101923.38;;;21.92;46.85
21547;BME280;41275;51.912;4.388;2022-10-30T19:49:23;101929.88;;;21.91;46.77
21547;BME280;41275;51.912;4.388;2022-10-30T19:54:44;101933.91;;;21.88;46.81
21547;BME280;41275;51.912;4.388;2022-10-30T20:00:22;101939.56;;;21.92;46.75
21547;BME280;41275;51.912;4.388;2022-10-30T20:05:51;101942.03;;;21.78;46.78
21547;BME280;41275;51.912;4.388;2022-10-30T20:11:17;101936.94;;;21.61;46.84
21547;BME280;41275;51.912;4.388;2022-10-30T20:16:38;101943.97;;;21.57;47.07
21547;BME280;41275;51.912;4.388;2022-10-30T20:21:59;101939.16;;;21.44;47.21
21547;BME280;41275;51.912;4.388;2022-10-30T20:27:21;101946.69;;;21.37;47.46
21547;BME280;41275;51.912;4.388;2022-10-30T20:32:42;101943.72;;;21.28;47.98
21547;BME280;41275;51.912;4.388;2022-10-30T20:38:03;101942.38;;;21.20;48.46
21547;BME280;41275;51.912;4.388;2022-10-30T20:43:33;101947.78;;;21.15;48.46
21547;BME280;41275;51.912;4.388;2022-10-30T20:48:55;101943.47;;;21.04;48.74
21547;BME280;41275;51.912;4.388;2022-10-30T20:54:16;101953.16;;;21.00;48.86
21547;BME280;41275;51.912;4.388;2022-10-30T20:59:37;101962.56;;;20.92;49.02
21547;BME280;41275;51.912;4.388;2022-10-30T21:04:58;101958.25;;;20.86;49.07
21547;BME280;41275;51.912;4.388;2022-10-30T21:10:20;101963.13;;;20.79;49.22
21547;BME280;41275;51.912;4.388;2022-10-30T21:15:42;101959.31;;;20.75;49.17
21547;BME280;41275;51.912;4.388;2022-10-30T21:21:07;101964.44;;;20.71;49.47
21547;BME280;41275;51.912;4.388;2022-10-30T21:26:28;101963.09;;;20.64;49.64
21547;BME280;41275;51.912;4.388;2022-10-30T21:31:49;101968.19;;;20.65;49.93
21547;BME280;41275;51.912;4.388;2022-10-30T21:37:11;101975.97;;;20.62;49.41
21547;BME280;41275;51.912;4.388;2022-10-30T21:42:32;101976.50;;;20.58;49.29
21547;BME280;41275;51.912;4.388;2022-10-30T21:47:54;101980.81;;;20.59;49.34
21547;BME280;41275;51.912;4.388;2022-10-30T21:53:15;101986.44;;;20.53;49.52
21547;BME280;41275;51.912;4.388;2022-10-30T21:58:37;101979.97;;;20.49;49.53
21547;BME280;41275;51.912;4.388;2022-10-30T22:03:59;101983.16;;;20.46;49.90
21547;BME280;41275;51.912;4.388;2022-10-30T22:09:20;101996.88;;;20.44;50.09
21547;BME280;41275;51.912;4.388;2022-10-30T22:14:42;102000.41;;;20.50;50.03
21547;BME280;41275;51.912;4.388;2022-10-30T22:20:03;102000.47;;;20.60;49.56
21547;BME280;41275;51.912;4.388;2022-10-30T22:25:24;102012.03;;;20.61;49.34
21547;BME280;41275;51.912;4.388;2022-10-30T22:30:46;102000.97;;;20.52;49.58
21547;BME280;41275;51.912;4.388;2022-10-30T22:36:12;102010.56;;;20.43;49.96
21547;BME280;41275;51.912;4.388;2022-10-30T22:41:34;102010.00;;;20.35;49.97
21547;BME280;41275;51.912;4.388;2022-10-30T22:46:56;102009.47;;;20.28;50.20
21547;BME280;41275;51.912;4.388;2022-10-30T22:52:17;102021.53;;;20.31;50.42
21547;BME280;41275;51.912;4.388;2022-10-30T22:57:38;102020.22;;;20.28;50.29
21547;BME280;41275;51.912;4.388;2022-10-30T23:02:59;102015.63;;;20.29;50.47
21547;BME280;41275;51.912;4.388;2022-10-30T23:08:20;102015.63;;;20.29;50.32
21547;BME280;41275;51.912;4.388;2022-10-30T23:13:42;102017.53;;;20.33;50.35
21547;BME280;41275;51.912;4.388;2022-10-30T23:19:05;102007.31;;;20.35;50.32
21547;BME280;41275;51.912;4.388;2022-10-30T23:24:26;102010.84;;;20.36;50.17
21547;BME280;41275;51.912;4.388;2022-10-30T23:29:48;102015.38;;;20.30;50.37
21547;BME280;41275;51.912;4.388;2022-10-30T23:35:09;102012.16;;;20.28;50.30
21547;BME280;41275;51.912;4.388;2022-10-30T23:40:30;102010.22;;;20.24;50.53
21547;BME280;41275;51.912;4.388;2022-10-30T23:45:51;102013.75;;;20.24;50.39
21547;BME280;41275;51.912;4.388;2022-10-30T23:51:12;102006.44;;;20.20;50.47
21547;BME280;41275;51.912;4.388;2022-10-30T23:56:34;102009.91;;;20.15;50.63
